Bend, OR

10:39 PM PDT on August 21, 2017 (GMT -0700)
Bend Municipal | | Change Station
Active Advisory: Fire Weather Watch

Elev 3455 ft 44.09 °N, 121.20 °W | Updated 4 minutes ago

Clear
Clear
70 °F
Feels Like 70 °F
N
7
Wind Variable Wind from West

Today
High -- | Low -- °F
--% Chance of Precip.
Yesterday
High -- | Low -- °F
Precip. -- in
Pressure 30.11 in
Visibility 10.0 miles
Clouds Clear
Dew Point 39 °F
Humidity 33%
Rainfall 0.00 in
Snow Depth Not available.
6:15 AM 7:59 PM
New Moon, 0% visible
METAR KBDN 220535Z AUTO 28006KT 10SM CLR 21/04 A3011 RMK AO2
Pressure 30.11 in
Visibility 10.0 miles
Clouds Clear
Dew Point 39 °F
Humidity 33%
Rainfall 0.00 in
Snow Depth Not available.
6:15 AM 7:59 PM
New Moon, 0% visible
METAR KBDN 220535Z AUTO 28006KT 10SM CLR 21/04 A3011 RMK AO2

Get Your Daily Forecast Email!

Thanks for signing up!

Be on the lookout for a verification email in your inbox.

You'll start receiving severe weather alerts in your inbox..

×

10-Day Weather Forecast

Almanac

Astronomy

Aug. 21, 2017 Rise Set
Actual Time
Civil Twilight
Nautical Twilight
Astronomical Twilight
Moon
Length of Visible Light
Length of Day
Tomorrow will be .
, % of the Moon is Illuminated

Today's Extremes

State Highs State Lows

Community

WunderPhotos

Category 6

Welcome to Category 6. This is the collective home for Weather Underground's featured writeups by Dr. Jeff Masters (right), Bob Henson (left), Chris Burt, and other regular contributors.

Nearby

Air Quality

  Air Quality AQ Index Pollutant
Not available.

Snow Depth

Station Depth Elevation

Earthquake Activity

City Distance Mag. Time & Date
Minimum magnitude displayed is 2.5.

Coastal Water Temperatures

Place Temperature

Stations

Nearby Weather Stations

Station Location Temp. Windchill Dew Point Humidity Wind Precip. Elev Updated Type
                   

Watches & Warnings

Fire Weather Watch
Issued: 2:16 PM PDT Aug. 21, 2017 – National Weather Service

... Fire Weather Watch in effect from Wednesday afternoon through
Wednesday evening for abundant lightning and gusty outflow winds...

The National Weather Service in Pendleton has issued a Fire
Weather Watch, which is in effect from Wednesday afternoon
through Wednesday evening.

* Affected area... in Oregon... fire weather zones 611 and 640.

* Timing... Wednesday afternoon and evening.

* Lightning activity level... 3

* precipitation... one tenth to one quarter of an inch.

* Impacts... any fires that develop will likely spread rapidly.
Outdoor burning is not recommended.

Precautionary/preparedness actions...

A Fire Weather Watch means that critical fire weather conditions
are forecast to occur. Listen for later forecasts and possible
red flag warnings.